Time;durP1;ratioP1;P1;durP2;ratioP2;P2;SDS_P1;SDS_P2;PMS_P1;PMS_P2;Temp;Humidity;BMP_temperature;BMP_pressure;BME280_temperature;BME280_humidity;BME280_pressure;Samples;Min_cycle;Max_cycle;Signal;HPM_P1;HPM_P2
2023/03/09 00:00:51;;;;;;;2.50;2.30;;;;;;;;;;6187650;28;20293;-72
2023/03/09 00:03:58;;;;;;;2.40;2.20;;;;;;;;;;6187150;28;20389;-73
2023/03/09 00:07:04;;;;;;;3.30;2.47;;;;;;;;;;6187601;28;20308;-73
2023/03/09 00:10:13;;;;;;;2.57;2.47;;;;;;;;;;6186931;28;20311;-72
2023/03/09 00:13:18;;;;;;;2.50;2.27;;;;;;;;;;6186682;28;20302;-73
2023/03/09 00:16:25;;;;;;;3.10;2.77;;;;;;;;;;6187289;28;20317;-72
2023/03/09 00:19:32;;;;;;;3.70;2.63;;;;;;;;;;6186142;28;20301;-72
2023/03/09 00:22:38;;;;;;;3.00;2.70;;;;;;;;;;6186663;28;20271;-73
2023/03/09 00:25:43;;;;;;;3.33;2.57;;;;;;;;;;6186970;28;20583;-72
2023/03/09 00:28:48;;;;;;;2.77;2.43;;;;;;;;;;6217112;28;20301;-73
2023/03/09 00:31:53;;;;;;;5.10;2.83;;;;;;;;;;6187386;28;20297;-73
2023/03/09 00:34:59;;;;;;;2.87;2.67;;;;;;;;;;6186934;28;20376;-73
2023/03/09 00:38:09;;;;;;;2.63;2.43;;;;;;;;;;6188057;28;20300;-73
2023/03/09 00:41:14;;;;;;;3.40;2.43;;;;;;;;;;6188683;28;20295;-71
2023/03/09 00:44:19;;;;;;;2.87;2.67;;;;;;;;;;6188865;28;20296;-73
2023/03/09 00:47:26;;;;;;;2.43;2.23;;;;;;;;;;6217320;28;20296;-72
2023/03/09 00:50:32;;;;;;;2.70;2.60;;;;;;;;;;6186261;28;20312;-73
2023/03/09 00:53:38;;;;;;;3.73;2.90;;;;;;;;;;6186184;28;20319;-72
2023/03/09 00:56:43;;;;;;;3.07;2.53;;;;;;;;;;6185255;28;20305;-72
2023/03/09 00:59:50;;;;;;;3.07;2.77;;;;;;;;;;6216470;28;20356;-72
2023/03/09 01:02:55;;;;;;;2.77;2.53;;;;;;;;;;6185889;28;20305;-72
2023/03/09 01:06:02;;;;;;;2.53;2.43;;;;;;;;;;6216812;28;20613;-72
2023/03/09 01:09:08;;;;;;;2.87;2.67;;;;;;;;;;6184940;28;20304;-73
2023/03/09 01:12:13;;;;;;;5.33;2.80;;;;;;;;;;6186126;28;20307;-73
2023/03/09 01:15:18;;;;;;;3.67;3.33;;;;;;;;;;6216779;28;20295;-73
2023/03/09 01:18:23;;;;;;;3.27;2.97;;;;;;;;;;6217049;28;20493;-73
2023/03/09 01:21:30;;;;;;;3.07;2.80;;;;;;;;;;6186486;28;20341;-73
2023/03/09 01:24:36;;;;;;;3.17;2.87;;;;;;;;;;6183982;28;20295;-73
2023/03/09 01:27:41;;;;;;;4.67;3.10;;;;;;;;;;6185891;28;20575;-73
2023/03/09 01:30:47;;;;;;;3.27;2.83;;;;;;;;;;6188112;28;20293;-73
2023/03/09 01:33:52;;;;;;;2.50;2.40;;;;;;;;;;6185465;28;20296;-73
2023/03/09 01:36:59;;;;;;;3.87;2.73;;;;;;;;;;6216380;28;20308;-73
2023/03/09 01:40:06;;;;;;;2.90;2.70;;;;;;;;;;6189160;28;20300;-72
2023/03/09 01:43:34;;;;;;;2.93;2.70;;;;;;;;;;6190653;28;20300;-73
2023/03/09 01:46:49;;;;;;;3.07;2.97;;;;;;;;;;6191291;28;20323;-72
2023/03/09 01:49:54;;;;;;;2.87;2.60;;;;;;;;;;6188017;28;20582;-72
2023/03/09 01:53:05;;;;;;;3.13;2.90;;;;;;;;;;6189326;28;20296;-74
2023/03/09 01:56:12;;;;;;;4.00;2.63;;;;;;;;;;6220176;28;20295;-72
2023/03/09 01:59:17;;;;;;;3.73;3.40;;;;;;;;;;6189357;28;20300;-73
2023/03/09 02:02:25;;;;;;;3.60;2.70;;;;;;;;;;6220817;28;20312;-73
2023/03/09 02:05:34;;;;;;;3.50;3.20;;;;;;;;;;6189767;28;20301;-71
2023/03/09 02:08:46;;;;;;;3.13;2.83;;;;;;;;;;6187027;28;20594;-73
2023/03/09 02:11:51;;;;;;;4.00;2.80;;;;;;;;;;6189348;28;20299;-73
2023/03/09 02:14:57;;;;;;;3.17;2.97;;;;;;;;;;6187361;28;20320;-73
2023/03/09 02:18:03;;;;;;;4.87;3.13;;;;;;;;;;6223392;28;20355;-73
2023/03/09 02:21:12;;;;;;;2.67;2.57;;;;;;;;;;6219977;28;20600;-75
2023/03/09 02:24:23;;;;;;;3.10;2.90;;;;;;;;;;6189079;28;20293;-73
2023/03/09 02:27:31;;;;;;;3.07;2.73;;;;;;;;;;6190166;28;20380;-72
2023/03/09 02:30:39;;;;;;;3.33;3.00;;;;;;;;;;6219784;28;20303;-73
2023/03/09 02:33:46;;;;;;;2.83;2.70;;;;;;;;;;6220242;28;20320;-73
2023/03/09 02:36:52;;;;;;;3.27;3.00;;;;;;;;;;6220305;28;20591;-73
2023/03/09 02:40:04;;;;;;;5.73;3.27;;;;;;;;;;6222325;28;20293;-74
2023/03/09 02:43:15;;;;;;;2.70;2.60;;;;;;;;;;6226202;28;20347;-72
2023/03/09 02:46:21;;;;;;;3.90;3.37;;;;;;;;;;6223575;28;20301;-73
2023/03/09 02:49:27;;;;;;;3.50;3.20;;;;;;;;;;6219396;28;20300;-73
2023/03/09 02:52:32;;;;;;;5.33;3.23;;;;;;;;;;6186834;28;20279;-72
2023/03/09 02:55:37;;;;;;;2.83;2.63;;;;;;;;;;6188372;28;20298;-73
2023/03/09 02:58:47;;;;;;;3.17;2.97;;;;;;;;;;6187731;28;20596;-72
2023/03/09 03:01:54;;;;;;;2.63;2.60;;;;;;;;;;6189308;28;20287;-73
2023/03/09 03:04:59;;;;;;;3.63;3.27;;;;;;;;;;6187879;28;20574;-73
2023/03/09 03:08:05;;;;;;;3.27;3.03;;;;;;;;;;6218814;28;20329;-72
2023/03/09 03:11:12;;;;;;;3.40;3.20;;;;;;;;;;6218866;28;20299;-73
2023/03/09 03:14:20;;;;;;;3.20;3.00;;;;;;;;;;6202428;28;20298;-73
2023/03/09 03:17:26;;;;;;;3.33;2.67;;;;;;;;;;6218898;28;20306;-72
2023/03/09 03:20:32;;;;;;;8.37;3.20;;;;;;;;;;6186093;28;20307;-75
2023/03/09 03:23:38;;;;;;;3.47;3.27;;;;;;;;;;6186398;28;20295;-72
2023/03/09 03:26:43;;;;;;;3.37;2.83;;;;;;;;;;6186487;28;20299;-73
2023/03/09 03:29:54;;;;;;;4.93;3.10;;;;;;;;;;6202508;28;20305;-73
2023/03/09 03:32:59;;;;;;;3.07;2.67;;;;;;;;;;6218943;28;20289;-73
2023/03/09 03:36:09;;;;;;;3.40;3.13;;;;;;;;;;6219328;28;20374;-73
2023/03/09 03:39:16;;;;;;;3.30;3.10;;;;;;;;;;6202254;28;20305;-72
2023/03/09 03:42:23;;;;;;;3.57;3.27;;;;;;;;;;6218966;28;20478;-72
2023/03/09 03:45:30;;;;;;;2.90;2.70;;;;;;;;;;6218156;28;20290;-73
2023/03/09 03:48:36;;;;;;;2.90;2.67;;;;;;;;;;6218378;28;20334;-73
2023/03/09 03:51:44;;;;;;;3.93;3.00;;;;;;;;;;6218526;28;20299;-73
2023/03/09 03:54:50;;;;;;;3.57;3.30;;;;;;;;;;6219096;28;20299;-73
2023/03/09 03:57:55;;;;;;;2.73;2.63;;;;;;;;;;6187207;28;20495;-73
2023/03/09 04:01:02;;;;;;;3.40;2.87;;;;;;;;;;6187603;28;20617;-75
2023/03/09 04:04:07;;;;;;;2.87;2.67;;;;;;;;;;6183872;28;20294;-73
2023/03/09 04:07:17;;;;;;;2.97;2.70;;;;;;;;;;6201637;28;20310;-73
2023/03/09 04:10:23;;;;;;;4.43;3.03;;;;;;;;;;6217785;28;20539;-73
2023/03/09 04:13:29;;;;;;;3.37;3.10;;;;;;;;;;6216977;28;20275;-72
2023/03/09 04:16:38;;;;;;;3.40;3.10;;;;;;;;;;6186201;28;20271;-73
2023/03/09 04:19:43;;;;;;;3.13;2.90;;;;;;;;;;6184908;28;20297;-73
2023/03/09 04:22:49;;;;;;;3.73;3.00;;;;;;;;;;6217736;28;20306;-72
2023/03/09 04:26:00;;;;;;;3.10;3.00;;;;;;;;;;6185691;28;20592;-73
2023/03/09 04:29:15;;;;;;;3.10;2.90;;;;;;;;;;6177942;28;20573;-72
2023/03/09 04:32:22;;;;;;;3.27;2.97;;;;;;;;;;6193570;28;20304;-72
2023/03/09 04:35:33;;;;;;;10.43;3.27;;;;;;;;;;6177557;28;20494;-74
2023/03/09 04:38:42;;;;;;;4.13;3.43;;;;;;;;;;6213593;28;20330;-72
2023/03/09 04:41:47;;;;;;;3.07;2.77;;;;;;;;;;6188985;28;20286;-73
2023/03/09 04:44:53;;;;;;;3.30;3.10;;;;;;;;;;6218079;28;20297;-73
2023/03/09 04:48:01;;;;;;;8.30;3.47;;;;;;;;;;6185171;28;20407;-73
2023/03/09 04:51:07;;;;;;;3.20;3.00;;;;;;;;;;6216908;28;20388;-74
2023/03/09 04:54:13;;;;;;;5.57;3.70;;;;;;;;;;6185160;28;20579;-72
2023/03/09 04:57:19;;;;;;;3.43;3.17;;;;;;;;;;6185236;28;20578;-73
2023/03/09 05:00:25;;;;;;;3.33;3.00;;;;;;;;;;6217205;28;20302;-72
2023/03/09 05:03:32;;;;;;;3.63;3.10;;;;;;;;;;6184717;28;20550;-72
2023/03/09 05:06:38;;;;;;;3.60;3.30;;;;;;;;;;6186397;28;20461;-73
2023/03/09 05:09:44;;;;;;;9.00;3.63;;;;;;;;;;6220206;28;20297;-73
2023/03/09 05:12:50;;;;;;;3.10;2.90;;;;;;;;;;6218082;28;20298;-73
2023/03/09 05:16:04;;;;;;;3.30;3.10;;;;;;;;;;6189591;28;20504;-71
2023/03/09 05:19:12;;;;;;;5.60;3.50;;;;;;;;;;6205948;28;20306;-72
2023/03/09 05:22:19;;;;;;;5.23;3.97;;;;;;;;;;6191706;28;20290;-71
2023/03/09 05:25:24;;;;;;;6.63;3.50;;;;;;;;;;6190887;28;20296;-72
2023/03/09 05:28:32;;;;;;;4.80;3.40;;;;;;;;;;6187713;28;20309;-71
2023/03/09 05:31:37;;;;;;;5.27;3.17;;;;;;;;;;6191116;28;20278;-72
2023/03/09 05:34:47;;;;;;;3.27;3.10;;;;;;;;;;6192647;28;20305;-72
2023/03/09 05:37:53;;;;;;;4.03;3.23;;;;;;;;;;6221616;28;20581;-72
2023/03/09 05:41:05;;;;;;;3.37;3.07;;;;;;;;;;6221220;28;20388;-73
2023/03/09 05:44:12;;;;;;;3.33;3.23;;;;;;;;;;6189348;28;20314;-73
2023/03/09 05:47:17;;;;;;;4.73;3.23;;;;;;;;;;6221395;28;20309;-71
2023/03/09 05:50:24;;;;;;;3.07;2.80;;;;;;;;;;6188748;28;20302;-71
2023/03/09 05:53:29;;;;;;;3.63;3.33;;;;;;;;;;6190514;28;20297;-72
2023/03/09 05:56:35;;;;;;;3.17;2.97;;;;;;;;;;6221959;28;20290;-71
2023/03/09 05:59:42;;;;;;;3.53;3.23;;;;;;;;;;6220900;28;20305;-71
2023/03/09 06:02:47;;;;;;;3.10;2.80;;;;;;;;;;6221037;28;20369;-71
2023/03/09 06:06:05;;;;;;;3.67;3.33;;;;;;;;;;6221169;28;20302;-73
2023/03/09 06:09:16;;;;;;;3.90;3.00;;;;;;;;;;6188491;28;20298;-72
2023/03/09 06:12:22;;;;;;;3.63;3.37;;;;;;;;;;6190416;28;20285;-72
2023/03/09 06:15:30;;;;;;;3.57;3.47;;;;;;;;;;6188075;28;20480;-73
2023/03/09 06:18:37;;;;;;;4.03;3.63;;;;;;;;;;6220502;28;20353;-72
2023/03/09 06:21:46;;;;;;;3.73;3.33;;;;;;;;;;6188442;28;20294;-74
2023/03/09 06:24:51;;;;;;;5.60;3.57;;;;;;;;;;6219172;28;20318;-73
2023/03/09 06:27:57;;;;;;;4.20;3.80;;;;;;;;;;6204875;28;20562;-73
2023/03/09 06:31:07;;;;;;;3.67;3.40;;;;;;;;;;6188067;28;20437;-73
2023/03/09 06:34:13;;;;;;;3.47;3.23;;;;;;;;;;6189868;28;20293;-73
2023/03/09 06:37:20;;;;;;;4.47;3.90;;;;;;;;;;6188622;28;20293;-73
2023/03/09 06:40:27;;;;;;;4.07;3.77;;;;;;;;;;6219553;28;20301;-72
2023/03/09 06:43:32;;;;;;;3.87;3.47;;;;;;;;;;6186636;28;20273;-73
2023/03/09 06:46:38;;;;;;;3.50;3.30;;;;;;;;;;6188326;28;20274;-73
2023/03/09 06:49:44;;;;;;;3.50;3.30;;;;;;;;;;6221392;28;20497;-72
2023/03/09 06:52:54;;;;;;;3.80;3.37;;;;;;;;;;6189422;28;20299;-73
2023/03/09 06:56:01;;;;;;;4.97;3.30;;;;;;;;;;6220324;28;20301;-72
2023/03/09 06:59:11;;;;;;;3.60;3.30;;;;;;;;;;6219583;28;20618;-74
2023/03/09 07:02:16;;;;;;;3.80;3.50;;;;;;;;;;6220433;28;20297;-73
2023/03/09 07:05:22;;;;;;;4.47;3.57;;;;;;;;;;6219125;28;20298;-73
2023/03/09 07:08:28;;;;;;;3.43;3.13;;;;;;;;;;6187415;28;20595;-71
2023/03/09 07:11:34;;;;;;;4.23;3.87;;;;;;;;;;6189561;28;20303;-72
2023/03/09 07:14:39;;;;;;;4.47;3.53;;;;;;;;;;6191251;28;20306;-72
2023/03/09 07:17:44;;;;;;;3.63;3.00;;;;;;;;;;6188615;28;20603;-71
2023/03/09 07:20:49;;;;;;;7.13;2.97;;;;;;;;;;6189449;28;20301;-72
2023/03/09 07:23:56;;;;;;;3.60;3.40;;;;;;;;;;6187849;28;20315;-72
2023/03/09 07:27:01;;;;;;;3.33;3.10;;;;;;;;;;6187632;28;20292;-73
2023/03/09 07:30:07;;;;;;;3.40;3.10;;;;;;;;;;6187586;28;20300;-72
2023/03/09 07:33:13;;;;;;;6.10;3.30;;;;;;;;;;6186473;28;20332;-72
2023/03/09 07:36:19;;;;;;;3.60;3.40;;;;;;;;;;6187301;28;20296;-72
2023/03/09 07:39:25;;;;;;;4.53;3.67;;;;;;;;;;6185642;28;20490;-71
2023/03/09 07:42:31;;;;;;;3.70;3.37;;;;;;;;;;6163830;28;20297;-72
2023/03/09 07:46:00;;;;;;;3.57;3.27;;;;;;;;;;6194025;28;20296;-72
2023/03/09 07:49:05;;;;;;;3.97;3.73;;;;;;;;;;6163452;28;20294;-71
2023/03/09 07:52:12;;;;;;;3.90;3.53;;;;;;;;;;6164071;28;20309;-73
2023/03/09 07:55:22;;;;;;;3.63;3.43;;;;;;;;;;6163371;28;20296;-72
2023/03/09 07:58:27;;;;;;;3.97;3.67;;;;;;;;;;6163485;28;20305;-72
2023/03/09 08:01:32;;;;;;;4.37;3.77;;;;;;;;;;6162291;28;20293;-72
2023/03/09 08:04:37;;;;;;;4.20;3.47;;;;;;;;;;6162436;28;20356;-72
2023/03/09 08:07:43;;;;;;;8.33;4.00;;;;;;;;;;6163037;28;20290;-72
2023/03/09 08:10:51;;;;;;;4.53;4.00;;;;;;;;;;6167291;28;20297;-71
2023/03/09 08:13:56;;;;;;;5.13;3.67;;;;;;;;;;6187415;28;20297;-72
2023/03/09 08:17:03;;;;;;;4.97;4.00;;;;;;;;;;6187484;28;20296;-72
2023/03/09 08:20:11;;;;;;;6.57;3.87;;;;;;;;;;6186389;28;20313;-73
2023/03/09 08:23:16;;;;;;;3.90;3.60;;;;;;;;;;6185799;28;20296;-72
2023/03/09 08:26:23;;;;;;;4.33;3.93;;;;;;;;;;6186747;28;20309;-73
2023/03/09 08:29:30;;;;;;;4.73;4.13;;;;;;;;;;6186791;28;20298;-73
2023/03/09 08:32:35;;;;;;;4.50;4.13;;;;;;;;;;6187156;28;20306;-73
2023/03/09 08:35:41;;;;;;;4.07;3.77;;;;;;;;;;6186924;28;20301;-73
2023/03/09 08:38:47;;;;;;;4.20;3.80;;;;;;;;;;6186261;28;20297;-72
2023/03/09 08:41:53;;;;;;;4.10;3.50;;;;;;;;;;6187044;28;20305;-71
2023/03/09 08:44:58;;;;;;;3.60;3.40;;;;;;;;;;6186342;28;20296;-73
2023/03/09 08:48:04;;;;;;;4.57;3.60;;;;;;;;;;6185195;28;20302;-72
2023/03/09 08:51:10;;;;;;;9.53;4.40;;;;;;;;;;6203807;28;20298;-72
2023/03/09 08:54:16;;;;;;;3.97;3.63;;;;;;;;;;6186768;28;20460;-74
2023/03/09 08:57:22;;;;;;;3.73;3.53;;;;;;;;;;6186844;28;20295;-72
2023/03/09 09:00:28;;;;;;;4.33;3.93;;;;;;;;;;6186586;28;20296;-72
2023/03/09 09:03:33;;;;;;;5.33;3.80;;;;;;;;;;6186256;28;20453;-73
2023/03/09 09:06:39;;;;;;;3.93;3.77;;;;;;;;;;6186666;28;20311;-72
2023/03/09 09:09:44;;;;;;;3.87;3.23;;;;;;;;;;6186622;28;20299;-73
2023/03/09 09:12:51;;;;;;;3.37;3.07;;;;;;;;;;6192641;28;20299;-72
2023/03/09 09:15:56;;;;;;;3.90;3.53;;;;;;;;;;6193145;28;20300;-73
2023/03/09 09:19:02;;;;;;;3.90;3.10;;;;;;;;;;6187613;28;20603;-72
2023/03/09 09:22:09;;;;;;;3.33;3.10;;;;;;;;;;6186810;28;20294;-72
2023/03/09 09:25:15;;;;;;;2.90;2.80;;;;;;;;;;6216877;28;20459;-72
2023/03/09 09:28:21;;;;;;;2.97;2.77;;;;;;;;;;6217401;28;20593;-72
2023/03/09 09:31:26;;;;;;;2.70;2.60;;;;;;;;;;6186376;28;20401;-74
2023/03/09 09:34:36;;;;;;;2.90;2.37;;;;;;;;;;6216428;28;20296;-75
2023/03/09 09:37:42;;;;;;;3.07;2.47;;;;;;;;;;6186420;28;20296;-75
2023/03/09 09:40:47;;;;;;;2.47;2.27;;;;;;;;;;6186041;28;20308;-75
2023/03/09 09:43:57;;;;;;;2.60;2.40;;;;;;;;;;6186387;28;20310;-74
2023/03/09 09:47:04;;;;;;;4.60;2.10;;;;;;;;;;6187131;28;20293;-75
2023/03/09 09:50:13;;;;;;;2.43;2.10;;;;;;;;;;6186961;28;20303;-74
2023/03/09 09:53:24;;;;;;;1.80;1.80;;;;;;;;;;6201446;28;20309;-75
2023/03/09 09:56:37;;;;;;;2.00;1.90;;;;;;;;;;6185603;28;20294;-75
2023/03/09 09:59:49;;;;;;;1.93;1.77;;;;;;;;;;6186058;28;20302;-73
2023/03/09 10:03:11;;;;;;;2.83;2.10;;;;;;;;;;6221559;28;20320;-75
2023/03/09 10:06:19;;;;;;;1.50;1.40;;;;;;;;;;6190568;28;20300;-75
2023/03/09 10:09:26;;;;;;;3.50;1.97;;;;;;;;;;6167141;28;20340;-76
2023/03/09 10:12:32;;;;;;;2.27;1.97;;;;;;;;;;6167002;28;20585;-73
2023/03/09 10:15:39;;;;;;;1.50;1.50;;;;;;;;;;6166566;28;20306;-74
2023/03/09 10:18:48;;;;;;;2.10;1.40;;;;;;;;;;6165771;28;20344;-73
2023/03/09 10:21:57;;;;;;;1.47;1.37;;;;;;;;;;6166730;28;20302;-74
2023/03/09 10:25:02;;;;;;;1.40;1.30;;;;;;;;;;6166001;28;20511;-74
2023/03/09 10:28:13;;;;;;;1.20;1.20;;;;;;;;;;6169402;28;20291;-75
2023/03/09 10:31:23;;;;;;;1.20;1.10;;;;;;;;;;6166297;28;20308;-74
2023/03/09 10:34:29;;;;;;;1.40;1.40;;;;;;;;;;6164791;28;20309;-75
2023/03/09 10:37:35;;;;;;;1.63;1.40;;;;;;;;;;6166282;28;20272;-74
2023/03/09 10:40:46;;;;;;;4.03;1.50;;;;;;;;;;6164751;28;20595;-74
2023/03/09 10:43:53;;;;;;;1.00;1.00;;;;;;;;;;6165782;28;20297;-74
2023/03/09 10:47:01;;;;;;;1.03;1.03;;;;;;;;;;6196476;28;20307;-74
2023/03/09 10:50:11;;;;;;;1.00;1.00;;;;;;;;;;6165376;28;20302;-75
2023/03/09 10:53:32;;;;;;;1.20;1.10;;;;;;;;;;6196599;28;20296;-74
2023/03/09 10:56:43;;;;;;;1.00;1.00;;;;;;;;;;6165460;28;20445;-74
2023/03/09 10:59:57;;;;;;;0.80;0.80;;;;;;;;;;6164940;28;20300;-72
2023/03/09 11:03:04;;;;;;;1.03;1.03;;;;;;;;;;6166309;28;20298;-74
2023/03/09 11:06:32;;;;;;;0.83;0.83;;;;;;;;;;6166510;28;20325;-74
2023/03/09 11:09:47;;;;;;;0.60;0.60;;;;;;;;;;6195292;28;20325;-74
2023/03/09 11:12:52;;;;;;;0.90;0.90;;;;;;;;;;6164323;28;20298;-73
2023/03/09 11:16:16;;;;;;;0.97;0.93;;;;;;;;;;6164296;28;20294;-73
2023/03/09 11:19:23;;;;;;;1.53;1.23;;;;;;;;;;6163926;28;20640;-73
2023/03/09 11:22:28;;;;;;;4.30;1.13;;;;;;;;;;6163375;28;20301;-74
2023/03/09 11:25:44;;;;;;;1.00;1.00;;;;;;;;;;6163605;28;20304;-74
2023/03/09 11:28:58;;;;;;;1.30;1.13;;;;;;;;;;6194064;28;20540;-73
2023/03/09 11:32:03;;;;;;;2.80;1.47;;;;;;;;;;6164174;28;20299;-73
2023/03/09 11:35:15;;;;;;;1.83;1.13;;;;;;;;;;6163003;28;20301;-74
2023/03/09 11:38:21;;;;;;;0.80;0.80;;;;;;;;;;6164714;28;20299;-73
2023/03/09 11:41:28;;;;;;;0.70;0.70;;;;;;;;;;6164438;28;20295;-74
2023/03/09 11:44:36;;;;;;;0.90;0.90;;;;;;;;;;6163774;28;20316;-72
2023/03/09 11:47:44;;;;;;;1.63;0.90;;;;;;;;;;6164175;28;20397;-73
2023/03/09 11:50:58;;;;;;;1.30;1.30;;;;;;;;;;6163795;28;20302;-73
2023/03/09 11:54:07;;;;;;;2.73;1.00;;;;;;;;;;6163992;28;20300;-74
2023/03/09 11:57:16;;;;;;;1.17;1.10;;;;;;;;;;6194671;28;20304;-74
2023/03/09 12:00:23;;;;;;;1.13;0.90;;;;;;;;;;6162189;28;20299;-74
2023/03/09 12:03:29;;;;;;;1.10;1.10;;;;;;;;;;6164661;28;20303;-73
2023/03/09 12:06:40;;;;;;;2.53;1.10;;;;;;;;;;6165639;28;20308;-74
2023/03/09 12:09:53;;;;;;;0.90;0.90;;;;;;;;;;6186011;28;20294;-74
2023/03/09 12:13:02;;;;;;;1.10;1.10;;;;;;;;;;6187343;28;20299;-73
2023/03/09 12:16:09;;;;;;;1.00;1.00;;;;;;;;;;6186868;28;20308;-73
2023/03/09 12:19:17;;;;;;;2.87;1.50;;;;;;;;;;6187314;28;20468;-73
2023/03/09 12:22:30;;;;;;;1.00;1.00;;;;;;;;;;6187396;28;20298;-73
2023/03/09 12:25:35;;;;;;;0.90;0.90;;;;;;;;;;6186165;28;20295;-75
2023/03/09 12:28:41;;;;;;;1.27;1.10;;;;;;;;;;6186369;28;20286;-73
2023/03/09 12:31:47;;;;;;;1.30;1.13;;;;;;;;;;6187323;28;20284;-73
2023/03/09 12:34:53;;;;;;;2.43;1.10;;;;;;;;;;6187506;28;20301;-74
2023/03/09 12:38:17;;;;;;;1.20;1.17;;;;;;;;;;6187921;28;20294;-73
2023/03/09 12:41:28;;;;;;;1.43;1.27;;;;;;;;;;6186696;28;20297;-74
2023/03/09 12:45:00;;;;;;;1.00;1.00;;;;;;;;;;6186330;28;20302;-72
2023/03/09 12:48:21;;;;;;;4.40;1.07;;;;;;;;;;6186967;28;20362;-74
2023/03/09 12:51:32;;;;;;;1.13;1.13;;;;;;;;;;6186471;28;20306;-73
2023/03/09 12:54:38;;;;;;;1.03;1.03;;;;;;;;;;6187186;28;20310;-74
2023/03/09 12:57:44;;;;;;;1.30;1.30;;;;;;;;;;6187347;28;20286;-73
2023/03/09 13:00:52;;;;;;;1.20;1.10;;;;;;;;;;6186869;28;20316;-73
2023/03/09 13:04:12;;;;;;;0.97;0.97;;;;;;;;;;6186625;28;20327;-73
2023/03/09 13:07:18;;;;;;;1.13;1.10;;;;;;;;;;6187469;28;20331;-74
2023/03/09 13:10:29;;;;;;;2.30;1.00;;;;;;;;;;6186743;28;20299;-75
2023/03/09 13:13:40;;;;;;;1.20;1.20;;;;;;;;;;6184252;28;20278;-72
2023/03/09 13:17:04;;;;;;;1.37;1.33;;;;;;;;;;6184938;28;20281;-73
2023/03/09 13:20:25;;;;;;;1.00;1.00;;;;;;;;;;6185367;28;20299;-73
2023/03/09 13:23:31;;;;;;;1.40;1.30;;;;;;;;;;6187679;28;20410;-73
2023/03/09 13:26:40;;;;;;;5.57;1.40;;;;;;;;;;6187541;28;20577;-73
2023/03/09 13:29:47;;;;;;;3.70;1.30;;;;;;;;;;6186736;28;20317;-72
2023/03/09 13:33:05;;;;;;;2.50;1.33;;;;;;;;;;6187099;28;20477;-73
2023/03/09 13:36:16;;;;;;;2.97;1.40;;;;;;;;;;6190467;28;20588;-73
2023/03/09 13:39:24;;;;;;;1.90;1.40;;;;;;;;;;6191356;28;20304;-74
2023/03/09 13:42:32;;;;;;;1.33;1.33;;;;;;;;;;6193030;28;20290;-73
2023/03/09 13:45:38;;;;;;;1.70;1.30;;;;;;;;;;6190763;28;20299;-74
2023/03/09 13:48:45;;;;;;;2.53;1.30;;;;;;;;;;6190679;28;20292;-73
2023/03/09 13:51:52;;;;;;;1.77;1.40;;;;;;;;;;6191490;28;20335;-74
2023/03/09 13:54:58;;;;;;;1.90;1.60;;;;;;;;;;6221822;28;20299;-73
2023/03/09 13:58:14;;;;;;;1.20;1.20;;;;;;;;;;6191638;28;20294;-73
2023/03/09 14:01:23;;;;;;;4.20;1.50;;;;;;;;;;6191046;28;20298;-74
2023/03/09 14:04:28;;;;;;;2.50;1.30;;;;;;;;;;6190651;28;20302;-75
2023/03/09 14:07:36;;;;;;;1.20;1.20;;;;;;;;;;6190141;28;20301;-72
2023/03/09 14:10:42;;;;;;;1.10;1.10;;;;;;;;;;6190322;28;20576;-74
2023/03/09 14:13:53;;;;;;;1.83;1.20;;;;;;;;;;6190552;28;20289;-74
2023/03/09 14:16:58;;;;;;;1.20;1.20;;;;;;;;;;6192796;28;20463;-74
2023/03/09 14:20:05;;;;;;;3.93;1.40;;;;;;;;;;6190873;28;20289;-74
2023/03/09 14:23:17;;;;;;;1.00;1.00;;;;;;;;;;6191060;28;20290;-76
2023/03/09 14:26:27;;;;;;;3.50;1.10;;;;;;;;;;6189730;28;20310;-75
2023/03/09 14:29:34;;;;;;;1.10;1.10;;;;;;;;;;6189854;28;20582;-74
2023/03/09 14:32:57;;;;;;;1.00;1.00;;;;;;;;;;6191465;28;20294;-75
2023/03/09 14:36:08;;;;;;;1.23;1.23;;;;;;;;;;6191026;28;20301;-75
2023/03/09 14:39:28;;;;;;;1.37;1.37;;;;;;;;;;6193228;28;20299;-75
2023/03/09 14:42:35;;;;;;;1.33;1.30;;;;;;;;;;6194415;28;20301;-74
2023/03/09 14:45:41;;;;;;;1.20;1.20;;;;;;;;;;6194195;28;20299;-74
2023/03/09 14:48:47;;;;;;;1.67;1.17;;;;;;;;;;6195152;28;20311;-75
2023/03/09 14:51:53;;;;;;;1.50;1.50;;;;;;;;;;6196489;28;20296;-74
2023/03/09 14:55:00;;;;;;;1.50;1.20;;;;;;;;;;6196936;28;20306;-73
2023/03/09 14:58:09;;;;;;;0.97;0.97;;;;;;;;;;6197373;28;20297;-74
2023/03/09 15:01:17;;;;;;;0.80;0.80;;;;;;;;;;6197583;28;20303;-75
2023/03/09 15:04:22;;;;;;;1.00;1.00;;;;;;;;;;6197682;28;20295;-73
2023/03/09 15:07:28;;;;;;;2.90;1.10;;;;;;;;;;6198599;28;20321;-75
2023/03/09 15:10:34;;;;;;;2.83;2.30;;;;;;;;;;6195428;28;20303;-73
2023/03/09 15:13:39;;;;;;;1.20;1.20;;;;;;;;;;6197588;28;20262;-72
2023/03/09 15:16:46;;;;;;;1.20;1.10;;;;;;;;;;6195824;28;20276;-74
2023/03/09 15:19:52;;;;;;;3.17;2.07;;;;;;;;;;6196260;28;20493;-74
2023/03/09 15:22:57;;;;;;;1.23;1.23;;;;;;;;;;6195300;28;20294;-74
2023/03/09 15:26:06;;;;;;;1.13;1.10;;;;;;;;;;6196252;28;20310;-72
2023/03/09 15:29:13;;;;;;;1.23;1.23;;;;;;;;;;6174520;28;20362;-74
2023/03/09 15:32:19;;;;;;;1.23;1.23;;;;;;;;;;6174501;28;20302;-75
2023/03/09 15:35:24;;;;;;;1.40;1.40;;;;;;;;;;6173603;28;20314;-73
2023/03/09 15:38:29;;;;;;;1.17;1.17;;;;;;;;;;6172099;28;20309;-72
2023/03/09 15:41:37;;;;;;;1.60;1.60;;;;;;;;;;6170405;28;20300;-76
2023/03/09 15:44:42;;;;;;;2.20;1.27;;;;;;;;;;6170997;28;20291;-73
2023/03/09 15:47:49;;;;;;;1.13;1.13;;;;;;;;;;6173751;28;20296;-74
2023/03/09 15:50:54;;;;;;;1.30;1.30;;;;;;;;;;6173906;28;20295;-73
2023/03/09 15:53:59;;;;;;;0.90;0.90;;;;;;;;;;6175352;28;20294;-72
2023/03/09 15:57:06;;;;;;;1.60;1.17;;;;;;;;;;6173485;28;20296;-73
2023/03/09 16:00:14;;;;;;;0.97;0.97;;;;;;;;;;6174341;28;20308;-73
2023/03/09 16:03:20;;;;;;;0.90;0.90;;;;;;;;;;6174351;28;20317;-73
2023/03/09 16:06:25;;;;;;;1.30;1.30;;;;;;;;;;6173364;28;20310;-73
2023/03/09 16:09:31;;;;;;;1.00;0.93;;;;;;;;;;6173634;28;20438;-74
2023/03/09 16:12:36;;;;;;;1.53;1.50;;;;;;;;;;6193602;28;20289;-73
2023/03/09 16:15:41;;;;;;;1.10;1.10;;;;;;;;;;6196793;28;20298;-73
2023/03/09 16:18:48;;;;;;;1.50;1.40;;;;;;;;;;6195435;28;20553;-73
2023/03/09 16:21:53;;;;;;;2.20;1.10;;;;;;;;;;6228496;28;20294;-72
2023/03/09 16:24:58;;;;;;;1.43;1.10;;;;;;;;;;6196905;28;20297;-73
2023/03/09 16:28:05;;;;;;;1.37;1.07;;;;;;;;;;6196564;28;20286;-73
2023/03/09 16:31:16;;;;;;;1.20;1.20;;;;;;;;;;6195708;28;20301;-73
2023/03/09 16:34:23;;;;;;;2.60;1.20;;;;;;;;;;6194857;28;20310;-73
2023/03/09 16:37:28;;;;;;;1.40;1.40;;;;;;;;;;6194837;28;20295;-74
2023/03/09 16:40:34;;;;;;;0.97;0.97;;;;;;;;;;6193357;28;20301;-72
2023/03/09 16:43:39;;;;;;;1.30;1.17;;;;;;;;;;6193928;28;20273;-73
2023/03/09 16:46:44;;;;;;;2.13;1.27;;;;;;;;;;6194377;28;20282;-74
2023/03/09 16:49:53;;;;;;;1.03;1.03;;;;;;;;;;6193355;28;20301;-72
2023/03/09 16:52:58;;;;;;;4.17;1.00;;;;;;;;;;6193062;28;20392;-74
2023/03/09 16:56:06;;;;;;;1.87;1.10;;;;;;;;;;6193859;28;20370;-74
2023/03/09 16:59:12;;;;;;;1.00;1.00;;;;;;;;;;6193276;28;20322;-75
2023/03/09 17:02:17;;;;;;;1.17;1.17;;;;;;;;;;6194047;28;20297;-71
2023/03/09 17:05:24;;;;;;;1.20;1.10;;;;;;;;;;6194870;28;20293;-75
2023/03/09 17:08:32;;;;;;;1.23;1.00;;;;;;;;;;6194746;28;20293;-75
2023/03/09 17:11:37;;;;;;;1.27;1.10;;;;;;;;;;6200152;28;20290;-73
2023/03/09 17:14:42;;;;;;;1.40;1.30;;;;;;;;;;6199605;28;20305;-74
2023/03/09 17:17:48;;;;;;;2.30;1.40;;;;;;;;;;6200947;28;20301;-74
2023/03/09 17:20:54;;;;;;;1.27;1.13;;;;;;;;;;6231231;28;20293;-73
2023/03/09 17:23:59;;;;;;;1.10;1.10;;;;;;;;;;6196278;28;20294;-75
2023/03/09 17:27:05;;;;;;;1.20;1.20;;;;;;;;;;6223216;28;20293;-74
2023/03/09 17:30:14;;;;;;;3.33;1.10;;;;;;;;;;6191940;28;20297;-74
2023/03/09 17:33:20;;;;;;;3.93;1.30;;;;;;;;;;6197268;28;20300;-73
2023/03/09 17:36:27;;;;;;;1.20;1.20;;;;;;;;;;6197304;28;20481;-73
2023/03/09 17:39:32;;;;;;;1.10;1.10;;;;;;;;;;6194488;28;20304;-74
2023/03/09 17:42:38;;;;;;;1.20;1.20;;;;;;;;;;6192251;28;20292;-75
2023/03/09 17:45:43;;;;;;;1.10;1.10;;;;;;;;;;6191027;28;20475;-73
2023/03/09 17:48:48;;;;;;;1.17;1.17;;;;;;;;;;6190912;28;20301;-75
2023/03/09 17:51:55;;;;;;;1.50;1.40;;;;;;;;;;6191178;28;20300;-74
2023/03/09 17:55:00;;;;;;;1.27;1.27;;;;;;;;;;6190847;28;20480;-74
2023/03/09 17:58:05;;;;;;;1.20;1.20;;;;;;;;;;6190838;28;20482;-74
2023/03/09 18:01:12;;;;;;;1.40;1.30;;;;;;;;;;6190148;28;20305;-74
2023/03/09 18:04:17;;;;;;;3.03;1.33;;;;;;;;;;6190285;28;20291;-75
2023/03/09 18:07:24;;;;;;;2.67;1.30;;;;;;;;;;6190720;28;20317;-74
2023/03/09 18:10:31;;;;;;;3.10;1.30;;;;;;;;;;6188916;28;20304;-74
2023/03/09 18:13:36;;;;;;;2.27;1.40;;;;;;;;;;6190259;28;20455;-72
2023/03/09 18:16:42;;;;;;;1.57;1.50;;;;;;;;;;6190517;28;20274;-73
2023/03/09 18:19:47;;;;;;;5.10;1.50;;;;;;;;;;6190093;28;20289;-74
2023/03/09 18:22:54;;;;;;;1.43;1.33;;;;;;;;;;6190154;28;20297;-73
2023/03/09 18:25:59;;;;;;;3.30;1.50;;;;;;;;;;6190276;28;20301;-73
2023/03/09 18:29:04;;;;;;;1.80;1.53;;;;;;;;;;6188545;28;20304;-73
2023/03/09 18:32:10;;;;;;;1.80;1.70;;;;;;;;;;6190131;28;20582;-74
2023/03/09 18:35:16;;;;;;;1.40;1.40;;;;;;;;;;6189370;28;20296;-75
2023/03/09 18:38:22;;;;;;;1.40;1.37;;;;;;;;;;6193114;28;20586;-75
2023/03/09 18:41:27;;;;;;;1.67;1.60;;;;;;;;;;6190570;28;20305;-74
2023/03/09 18:44:32;;;;;;;1.43;1.43;;;;;;;;;;6189365;28;20304;-74